createdAt,value
2018-11-25T00:01:50.331Z,85.30
2018-11-25T00:04:22.449Z,84.57
2018-11-25T00:06:56.644Z,87.70
2018-11-25T00:09:31.572Z,87.17
2018-11-25T00:12:03.962Z,87.80
2018-11-25T00:14:37.941Z,84.37
2018-11-25T00:17:10.181Z,84.67
2018-11-25T00:19:44.214Z,83.00
2018-11-25T00:22:17.015Z,83.20
2018-11-25T00:24:49.786Z,83.20
2018-11-25T00:27:23.282Z,83.43
2018-11-25T00:29:57.397Z,80.63
2018-11-25T00:32:30.083Z,82.60
2018-11-25T00:35:02.372Z,80.20
2018-11-25T00:37:35.551Z,80.70
2018-11-25T00:40:08.125Z,79.47
2018-11-25T00:42:42.310Z,77.27
2018-11-25T00:45:21.222Z,80.23
2018-11-25T00:47:54.238Z,76.60
2018-11-25T00:50:28.410Z,76.97
2018-11-25T00:53:01.141Z,76.73
2018-11-25T00:55:34.541Z,76.77
2018-11-25T00:58:08.403Z,73.50
2018-11-25T01:00:42.977Z,76.30
2018-11-25T01:03:16.569Z,75.33
2018-11-25T01:05:50.440Z,73.13
2018-11-25T01:08:22.374Z,72.73
2018-11-25T01:10:53.538Z,75.50
2018-11-25T01:13:27.176Z,75.43
2018-11-25T01:15:59.694Z,71.60
2018-11-25T01:18:31.505Z,72.83
2018-11-25T01:21:03.931Z,73.43
2018-11-25T01:23:37.226Z,69.80
2018-11-25T01:26:10.145Z,69.47
2018-11-25T01:28:42.561Z,69.30
2018-11-25T01:31:16.701Z,69.77
2018-11-25T01:33:51.328Z,69.77
2018-11-25T01:36:22.521Z,66.00
2018-11-25T01:38:55.577Z,68.60
2018-11-25T01:41:28.107Z,66.67
2018-11-25T01:44:01.086Z,67.90
2018-11-25T01:46:34.160Z,65.77
2018-11-25T01:49:07.542Z,65.13
2018-11-25T01:51:39.970Z,65.40
2018-11-25T01:54:13.144Z,62.30
2018-11-25T01:56:47.253Z,62.17
2018-11-25T01:59:21.059Z,60.27
2018-11-25T02:01:53.515Z,61.73
2018-11-25T02:04:27.484Z,59.77
2018-11-25T02:07:00.797Z,62.90
2018-11-25T02:09:36.317Z,60.67
2018-11-25T02:12:10.208Z,61.57
2018-11-25T02:14:44.338Z,58.00
2018-11-25T02:17:17.353Z,58.90
2018-11-25T02:19:49.317Z,57.63
2018-11-25T02:22:21.402Z,56.53
2018-11-25T02:24:55.025Z,55.80
2018-11-25T02:27:28.082Z,56.27
2018-11-25T02:30:00.305Z,54.70
2018-11-25T02:32:32.639Z,54.13
2018-11-25T02:35:05.977Z,55.90
2018-11-25T02:37:38.621Z,54.27
2018-11-25T02:40:15.960Z,55.53
2018-11-25T02:42:51.650Z,53.10
2018-11-25T02:45:24.576Z,53.00
2018-11-25T02:47:57.990Z,52.77
2018-11-25T02:50:33.132Z,52.00
2018-11-25T02:53:13.705Z,53.13
2018-11-25T02:55:46.465Z,53.47
2018-11-25T02:58:20.960Z,52.17
2018-11-25T03:00:55.545Z,51.90
2018-11-25T03:03:30.577Z,49.67
2018-11-25T03:06:03.517Z,49.43
2018-11-25T03:08:35.394Z,48.40
2018-11-25T03:11:07.749Z,48.40
2018-11-25T03:13:40.753Z,48.00
2018-11-25T03:16:20.826Z,49.33
2018-11-25T03:18:53.259Z,47.07
2018-11-25T03:21:25.210Z,47.23
2018-11-25T03:23:57.826Z,46.30
2018-11-25T03:26:35.845Z,46.00
2018-11-25T03:29:08.314Z,46.40
2018-11-25T03:31:44.601Z,46.33
2018-11-25T03:34:16.693Z,45.00
2018-11-25T03:36:50.164Z,44.43
2018-11-25T03:39:23.621Z,44.30
2018-11-25T03:41:56.636Z,43.03
2018-11-25T03:44:28.959Z,42.50
2018-11-25T03:47:03.176Z,40.07
2018-11-25T03:49:38.486Z,41.77
2018-11-25T03:52:10.366Z,42.17
2018-11-25T03:54:48.584Z,40.70
2018-11-25T03:57:20.364Z,39.13
2018-11-25T03:59:53.917Z,39.67
2018-11-25T04:02:26.194Z,40.10
2018-11-25T04:04:58.407Z,37.47
2018-11-25T04:07:29.608Z,38.13
2018-11-25T04:10:01.961Z,37.20
2018-11-25T04:12:35.252Z,38.70
2018-11-25T04:15:07.166Z,37.70
2018-11-25T04:17:42.240Z,38.80
2018-11-25T04:20:15.636Z,38.40
2018-11-25T04:22:51.679Z,41.40
2018-11-25T04:25:25.923Z,43.00
2018-11-25T04:27:58.775Z,42.50
2018-11-25T04:30:31.756Z,44.03
2018-11-25T04:33:04.804Z,43.50
2018-11-25T04:35:37.864Z,44.20
2018-11-25T04:38:11.817Z,45.70
2018-11-25T04:40:44.148Z,46.20
2018-11-25T04:43:15.646Z,50.30
2018-11-25T04:45:47.364Z,49.03
2018-11-25T04:48:20.419Z,48.50
2018-11-25T04:50:54.420Z,47.37
2018-11-25T04:53:27.686Z,48.23
2018-11-25T04:56:00.612Z,48.40
2018-11-25T04:58:32.105Z,48.90
2018-11-25T05:01:03.803Z,48.50
2018-11-25T05:03:37.000Z,49.30
2018-11-25T05:06:09.904Z,48.77
2018-11-25T05:08:43.389Z,50.33
2018-11-25T05:11:17.495Z,50.20
2018-11-25T05:13:52.173Z,50.00
2018-11-25T05:16:25.578Z,50.83
2018-11-25T05:18:57.516Z,52.50
2018-11-25T05:21:30.317Z,48.47
2018-11-25T05:24:02.644Z,49.90
2018-11-25T05:26:35.293Z,51.27
2018-11-25T05:29:07.489Z,49.30
2018-11-25T05:31:40.652Z,50.60
2018-11-25T05:34:12.885Z,51.13
2018-11-25T05:36:45.081Z,52.00
2018-11-25T05:39:18.625Z,49.00
2018-11-25T05:41:51.902Z,50.50
2018-11-25T05:44:25.386Z,55.00
2018-11-25T05:46:59.089Z,54.77
2018-11-25T05:49:36.342Z,59.17
2018-11-25T05:52:03.780Z,61.07
2018-11-25T05:54:39.703Z,63.87
2018-11-25T05:57:11.961Z,65.43
2018-11-25T05:59:48.288Z,65.47
2018-11-25T06:02:22.858Z,70.30
2018-11-25T06:04:58.523Z,70.83
2018-11-25T06:07:31.749Z,70.57
2018-11-25T06:10:04.105Z,71.40
2018-11-25T06:12:36.673Z,72.77
2018-11-25T06:15:12.296Z,72.03
2018-11-25T06:17:46.500Z,69.77
2018-11-25T06:20:21.565Z,68.57
2018-11-25T06:22:53.179Z,67.20
2018-11-25T06:25:26.012Z,66.73
2018-11-25T06:27:59.938Z,62.13
2018-11-25T06:30:32.704Z,64.67
2018-11-25T06:33:06.510Z,62.40
2018-11-25T06:35:40.684Z,61.70
2018-11-25T06:38:13.265Z,58.60
2018-11-25T06:40:49.355Z,57.40
2018-11-25T06:43:31.075Z,56.90
2018-11-25T06:46:02.092Z,51.87
2018-11-25T06:48:32.587Z,51.77
2018-11-25T06:51:03.088Z,53.07
2018-11-25T06:53:33.590Z,54.60
2018-11-25T06:56:04.090Z,59.87
2018-11-25T06:58:34.623Z,56.50
2018-11-25T07:01:05.036Z,55.57
2018-11-25T07:03:35.529Z,57.33
2018-11-25T07:06:06.173Z,56.70
2018-11-25T07:08:36.852Z,54.70
2018-11-25T07:11:07.380Z,55.63
2018-11-25T07:13:37.794Z,55.37
2018-11-25T07:16:08.925Z,53.90
2018-11-25T07:18:39.509Z,52.37
2018-11-25T07:21:10.054Z,54.50
2018-11-25T07:23:40.585Z,52.87
2018-11-25T07:26:11.240Z,52.20
2018-11-25T07:28:41.688Z,51.67
2018-11-25T07:31:12.140Z,50.50
2018-11-25T07:33:42.598Z,50.50
2018-11-25T07:36:13.019Z,50.10
2018-11-25T07:38:43.423Z,50.10
2018-11-25T07:41:13.992Z,50.27
2018-11-25T07:43:44.363Z,49.70
2018-11-25T07:46:14.799Z,50.10
2018-11-25T07:48:45.429Z,48.60
2018-11-25T07:51:15.990Z,49.33
2018-11-25T07:53:46.460Z,50.20
2018-11-25T07:56:17.806Z,48.07
2018-11-25T07:58:48.365Z,47.80
2018-11-25T08:01:18.967Z,49.37
2018-11-25T08:03:49.473Z,48.73
2018-11-25T08:06:20.247Z,47.73
2018-11-25T08:08:50.825Z,47.80
2018-11-25T08:11:21.290Z,46.30
2018-11-25T08:13:51.939Z,46.10
2018-11-25T08:16:22.501Z,47.30
2018-11-25T08:18:53.015Z,45.77
2018-11-25T08:21:23.448Z,45.63
2018-11-25T08:23:54.009Z,44.70
2018-11-25T08:26:24.557Z,45.40
2018-11-25T08:29:14.443Z,44.90
2018-11-25T08:31:45.056Z,46.47
2018-11-25T08:34:15.580Z,43.90
2018-11-25T08:36:46.077Z,44.77
2018-11-25T08:39:16.618Z,45.10
2018-11-25T08:41:47.176Z,45.20
2018-11-25T08:44:17.844Z,43.97
2018-11-25T08:46:48.227Z,43.40
2018-11-25T08:49:18.816Z,43.70
2018-11-25T08:51:49.320Z,41.17
2018-11-25T08:54:19.851Z,43.30
2018-11-25T08:56:50.419Z,43.57
2018-11-25T08:59:20.951Z,43.00
2018-11-25T09:01:51.518Z,43.20
2018-11-25T09:04:22.072Z,43.10
2018-11-25T09:06:52.715Z,43.53
2018-11-25T09:09:23.171Z,42.27
2018-11-25T09:11:53.599Z,42.20
2018-11-25T09:14:24.016Z,42.90
2018-11-25T09:16:54.659Z,40.90
2018-11-25T09:19:25.121Z,42.17
2018-11-25T09:21:55.482Z,40.03
2018-11-25T09:24:26.003Z,41.40
2018-11-25T09:26:56.547Z,41.57
2018-11-25T09:29:27.108Z,40.17
2018-11-25T09:34:24.018Z,41.30
2018-11-25T09:36:54.532Z,42.77
2018-11-25T09:39:25.784Z,40.47
2018-11-25T09:41:56.250Z,40.40
2018-11-25T09:44:26.714Z,39.87
2018-11-25T09:46:57.147Z,38.70
2018-11-25T09:49:27.603Z,37.20
2018-11-25T09:51:58.028Z,37.07
2018-11-25T09:54:28.572Z,37.10
2018-11-25T09:56:58.984Z,36.67
2018-11-25T09:59:29.475Z,36.27
2018-11-25T10:01:59.886Z,35.50
2018-11-25T10:04:30.258Z,37.77
2018-11-25T10:07:00.898Z,35.70
2018-11-25T10:09:31.519Z,34.50
2018-11-25T10:12:02.069Z,34.33
2018-11-25T10:14:32.617Z,34.50
2018-11-25T10:17:03.389Z,34.87
2018-11-25T10:19:33.903Z,33.17
2018-11-25T10:22:04.278Z,33.90
2018-11-25T10:24:34.833Z,33.13
2018-11-25T10:27:05.211Z,34.13
2018-11-25T10:29:35.798Z,33.37
2018-11-25T10:32:06.553Z,32.87
2018-11-25T10:34:37.060Z,33.63
2018-11-25T10:37:07.538Z,32.00
2018-11-25T10:39:38.098Z,33.37
2018-11-25T10:42:08.525Z,35.37
2018-11-25T10:44:38.942Z,31.40
2018-11-25T10:47:09.603Z,31.50
2018-11-25T10:49:40.164Z,32.03
2018-11-25T10:52:10.588Z,31.57
2018-11-25T10:54:41.119Z,31.10
2018-11-25T10:57:11.571Z,32.30
2018-11-25T10:59:42.274Z,33.37
2018-11-25T11:02:40.066Z,32.13
2018-11-25T11:05:11.248Z,33.57
2018-11-25T11:07:47.795Z,31.33
2018-11-25T11:10:18.181Z,31.80
2018-11-25T11:12:48.764Z,31.37
2018-11-25T11:15:19.131Z,40.87
2018-11-25T11:17:49.744Z,32.07
2018-11-25T11:20:20.405Z,30.83
2018-11-25T11:22:50.957Z,31.57
2018-11-25T11:25:21.406Z,31.30
2018-11-25T11:27:52.114Z,31.00
2018-11-25T11:30:22.700Z,30.30
2018-11-25T11:32:53.592Z,30.93
2018-11-25T11:35:24.225Z,30.30
2018-11-25T11:37:54.575Z,29.40
2018-11-25T11:40:24.989Z,40.17
2018-11-25T11:42:55.373Z,37.67
2018-11-25T11:45:25.936Z,34.33
2018-11-25T11:47:56.406Z,32.47
2018-11-25T11:50:28.693Z,31.20
2018-11-25T11:52:59.134Z,31.60
2018-11-25T11:55:29.780Z,29.00
2018-11-25T11:58:00.234Z,29.37
2018-11-25T12:00:31.783Z,30.53
2018-11-25T12:03:03.185Z,31.10
2018-11-25T12:05:33.582Z,30.23
2018-11-25T12:08:04.065Z,28.50
2018-11-25T12:10:34.441Z,28.83
2018-11-25T12:13:04.913Z,29.90
2018-11-25T12:15:35.325Z,27.73
2018-11-25T12:18:05.903Z,28.33
2018-11-25T12:20:36.350Z,27.50
2018-11-25T12:23:07.613Z,27.70
2018-11-25T12:25:38.072Z,29.03
2018-11-25T12:28:08.905Z,27.60
2018-11-25T12:30:39.467Z,26.57
2018-11-25T12:33:09.960Z,27.87
2018-11-25T12:35:40.665Z,26.60
2018-11-25T12:38:11.045Z,27.00
2018-11-25T12:40:41.542Z,25.87
2018-11-25T12:43:11.962Z,25.30
2018-11-25T12:45:42.551Z,26.50
2018-11-25T12:48:12.953Z,25.67
2018-11-25T12:50:43.497Z,26.17
2018-11-25T12:53:13.944Z,26.00
2018-11-25T12:55:44.391Z,25.00
2018-11-25T12:58:14.976Z,24.53
2018-11-25T13:00:46.929Z,24.07
2018-11-25T13:03:17.585Z,24.37
2018-11-25T13:05:48.035Z,23.20
2018-11-25T13:08:18.472Z,23.03
2018-11-25T13:10:48.919Z,24.13
2018-11-25T13:13:19.354Z,23.37
2018-11-25T13:15:49.820Z,23.90
2018-11-25T13:18:20.343Z,23.13
2018-11-25T13:20:50.945Z,22.03
2018-11-25T13:23:21.532Z,22.83
2018-11-25T13:25:51.964Z,23.37
2018-11-25T13:28:22.458Z,23.80
2018-11-25T13:30:52.849Z,25.57
2018-11-25T13:33:23.410Z,25.63
2018-11-25T13:35:54.098Z,27.33
2018-11-25T13:38:24.605Z,27.87
2018-11-25T13:40:55.057Z,27.70
2018-11-25T13:43:25.488Z,31.00
2018-11-25T13:45:56.015Z,31.80
2018-11-25T13:48:26.645Z,30.43
2018-11-25T13:51:06.752Z,34.13
2018-11-25T13:53:37.386Z,32.20
2018-11-25T13:56:08.337Z,34.80
2018-11-25T13:58:38.893Z,34.47
2018-11-25T14:01:09.372Z,34.63
2018-11-25T14:03:41.734Z,34.10
2018-11-25T14:06:14.103Z,35.47
2018-11-25T14:08:45.658Z,34.17
2018-11-25T14:11:16.633Z,35.03
2018-11-25T14:13:47.314Z,34.93
2018-11-25T14:16:21.962Z,35.80
2018-11-25T14:18:52.479Z,36.37
2018-11-25T14:21:22.919Z,35.97
2018-11-25T14:23:53.435Z,36.30
2018-11-25T14:26:26.025Z,37.37
2018-11-25T14:28:56.554Z,37.17
2018-11-25T14:31:27.029Z,35.60
2018-11-25T14:33:57.486Z,37.97
2018-11-25T14:36:28.025Z,37.20
2018-11-25T14:38:58.779Z,38.27
2018-11-25T14:41:29.191Z,36.63
2018-11-25T14:43:59.789Z,36.90
2018-11-25T14:46:30.225Z,35.97
2018-11-25T14:49:00.818Z,32.30
2018-11-25T14:51:31.277Z,32.40
2018-11-25T14:54:01.757Z,34.20
2018-11-25T14:56:32.222Z,30.77
2018-11-25T14:59:02.741Z,29.50
2018-11-25T15:01:33.192Z,32.10
2018-11-25T15:04:03.714Z,32.27
2018-11-25T15:06:34.289Z,31.93
2018-11-25T15:09:05.594Z,32.80
2018-11-25T15:11:36.188Z,32.47
2018-11-25T15:14:07.125Z,32.47
2018-11-25T15:16:37.928Z,32.23
2018-11-25T15:19:08.848Z,31.63
2018-11-25T15:21:39.474Z,32.20
2018-11-25T15:24:10.787Z,32.70
2018-11-25T15:26:41.261Z,29.77
2018-11-25T15:29:11.856Z,31.70
2018-11-25T15:31:42.286Z,30.90
2018-11-25T15:34:12.942Z,31.60
2018-11-25T15:36:43.391Z,32.60
2018-11-25T15:39:14.244Z,32.03
2018-11-25T15:41:44.891Z,30.97
2018-11-25T15:44:18.348Z,30.73
2018-11-25T15:46:48.818Z,30.07
2018-11-25T15:49:19.229Z,31.80
2018-11-25T15:51:49.612Z,31.97
2018-11-25T15:54:20.264Z,30.67
2018-11-25T15:56:50.912Z,30.57
2018-11-25T15:59:21.470Z,29.57
2018-11-25T16:01:51.899Z,29.90
2018-11-25T16:04:22.307Z,31.07
2018-11-25T16:06:53.027Z,30.60
2018-11-25T16:09:23.411Z,30.83
2018-11-25T16:11:54.046Z,29.90
2018-11-25T16:14:24.512Z,30.63
2018-11-25T16:16:54.909Z,30.40
2018-11-25T16:19:25.332Z,29.70
2018-11-25T16:21:55.758Z,29.30
2018-11-25T16:24:26.520Z,29.50
2018-11-25T16:26:56.835Z,31.17
2018-11-25T16:29:28.545Z,29.17
2018-11-25T16:31:58.937Z,28.93
2018-11-25T16:34:29.527Z,28.70
2018-11-25T16:36:59.868Z,28.73
2018-11-25T16:39:30.283Z,29.67
2018-11-25T16:42:00.824Z,29.13
2018-11-25T16:44:31.246Z,28.80
2018-11-25T16:47:01.835Z,29.17
2018-11-25T16:49:33.340Z,30.77
2018-11-25T16:52:03.633Z,27.57
2018-11-25T16:54:34.021Z,29.03
2018-11-25T16:57:04.629Z,29.30
2018-11-25T16:59:35.263Z,28.70
2018-11-25T17:02:05.819Z,28.90
2018-11-25T17:04:37.048Z,28.03
2018-11-25T17:07:08.024Z,28.33
2018-11-25T17:09:38.684Z,29.10
2018-11-25T17:12:09.229Z,29.50
2018-11-25T17:14:39.753Z,29.20
2018-11-25T17:17:10.336Z,29.03
2018-11-25T17:19:40.631Z,31.00
2018-11-25T17:22:16.408Z,34.40
2018-11-25T17:24:42.581Z,37.30
2018-11-25T17:27:12.972Z,37.50
2018-11-25T17:29:43.470Z,37.40
2018-11-25T17:32:13.797Z,37.43
2018-11-25T17:34:44.262Z,38.37
2018-11-25T17:37:14.707Z,39.50
2018-11-25T17:39:45.129Z,39.63
2018-11-25T17:42:15.664Z,37.63
2018-11-25T17:44:46.348Z,37.80
2018-11-25T17:47:16.666Z,39.07
2018-11-25T17:49:47.092Z,40.23
2018-11-25T17:52:17.471Z,43.00
2018-11-25T17:54:48.059Z,42.60
2018-11-25T17:57:18.645Z,41.23
2018-11-25T17:59:49.276Z,45.27
2018-11-25T18:02:19.811Z,45.47
2018-11-25T18:04:50.391Z,46.70
2018-11-25T18:07:21.009Z,50.30
2018-11-25T18:09:51.697Z,51.87
2018-11-25T18:12:22.127Z,52.20
2018-11-25T18:14:52.676Z,53.10
2018-11-25T18:17:23.135Z,53.80
2018-11-25T18:19:53.562Z,55.83
2018-11-25T18:22:26.605Z,56.00
2018-11-25T18:24:57.006Z,58.57
2018-11-25T18:27:27.418Z,58.27
2018-11-25T18:29:57.897Z,58.87
2018-11-25T18:32:28.665Z,61.00
2018-11-25T18:34:59.381Z,62.77
2018-11-25T18:37:29.836Z,66.23
2018-11-25T18:40:00.424Z,64.40
2018-11-25T18:42:31.015Z,71.90
2018-11-25T18:45:01.434Z,73.50
2018-11-25T18:47:31.996Z,75.93
2018-11-25T18:50:02.487Z,75.80
2018-11-25T18:52:33.005Z,69.50
2018-11-25T18:55:01.212Z,76.97
2018-11-25T18:57:31.746Z,75.00
2018-11-25T19:00:02.283Z,74.83
2018-11-25T19:02:45.600Z,73.37
2018-11-25T19:05:15.997Z,70.00
2018-11-25T19:07:46.499Z,69.27
2018-11-25T19:10:20.766Z,71.33
2018-11-25T19:12:51.463Z,65.23
2018-11-25T19:15:22.337Z,68.03
2018-11-25T19:17:52.696Z,66.20
2018-11-25T19:20:31.020Z,80.93
2018-11-25T19:23:01.766Z,65.27
2018-11-25T19:25:32.310Z,64.87
2018-11-25T19:28:02.750Z,64.87
2018-11-25T19:30:33.321Z,63.23
2018-11-25T19:33:03.817Z,94.57
2018-11-25T19:35:34.498Z,76.17
2018-11-25T19:38:05.576Z,73.67
2018-11-25T19:40:36.120Z,71.80
2018-11-25T19:43:07.454Z,73.00
2018-11-25T19:45:38.074Z,70.77
2018-11-25T19:48:08.547Z,69.63
2018-11-25T19:50:40.106Z,67.37
2018-11-25T19:53:11.601Z,68.33
2018-11-25T19:55:42.940Z,65.17
2018-11-25T19:58:13.314Z,65.40
2018-11-25T20:00:43.792Z,61.20
2018-11-25T20:03:14.246Z,62.60
2018-11-25T20:05:44.701Z,63.30
2018-11-25T20:08:15.374Z,61.93
2018-11-25T20:10:45.900Z,63.93
2018-11-25T20:13:16.474Z,70.50
2018-11-25T20:15:47.142Z,63.20
2018-11-25T20:18:17.662Z,63.77
2018-11-25T20:21:05.046Z,62.97
2018-11-25T20:23:35.558Z,59.03
2018-11-25T20:26:05.977Z,58.60
2018-11-25T20:28:36.427Z,61.77
2018-11-25T20:31:07.094Z,60.00
2018-11-25T20:33:52.206Z,60.33
2018-11-25T20:36:19.991Z,60.60
2018-11-25T20:39:07.981Z,58.50
2018-11-25T20:41:38.492Z,71.30
2018-11-25T20:44:08.944Z,78.40
2018-11-25T20:46:57.788Z,75.87
2018-11-25T20:49:28.032Z,78.90
2018-11-25T20:52:15.621Z,82.40
2018-11-25T20:54:46.074Z,83.63
2018-11-25T20:57:16.508Z,82.07
2018-11-25T20:59:46.934Z,83.23
2018-11-25T21:02:20.469Z,83.20
2018-11-25T21:04:48.533Z,86.30
2018-11-25T21:07:19.206Z,84.80
2018-11-25T21:09:49.636Z,87.40
2018-11-25T21:12:20.171Z,86.00
2018-11-25T21:14:50.625Z,85.80
2018-11-25T21:17:21.146Z,87.37
2018-11-25T21:19:51.602Z,86.83
2018-11-25T21:22:22.046Z,93.00
2018-11-25T21:24:52.585Z,91.63
2018-11-25T21:27:23.120Z,88.97
2018-11-25T21:29:53.573Z,91.80
2018-11-25T21:32:24.215Z,88.90
2018-11-25T21:34:54.805Z,95.00
2018-11-25T21:37:25.387Z,94.63
2018-11-25T21:39:55.826Z,99.90
2018-11-25T21:42:26.290Z,95.63
2018-11-25T21:44:56.740Z,97.87
2018-11-25T21:47:29.228Z,97.53
2018-11-25T21:49:59.893Z,97.20
2018-11-25T21:52:30.442Z,98.70
2018-11-25T21:55:00.875Z,95.17
2018-11-25T21:57:31.398Z,93.17
2018-11-25T22:00:01.979Z,92.03
2018-11-25T22:02:32.315Z,93.70
2018-11-25T22:05:02.705Z,93.40
2018-11-25T22:07:33.014Z,93.73
2018-11-25T22:10:03.618Z,95.27
2018-11-25T22:12:34.189Z,95.50
2018-11-25T22:15:04.845Z,97.57
2018-11-25T22:17:35.469Z,92.47
2018-11-25T22:20:07.506Z,91.10
2018-11-25T22:22:38.016Z,90.80
2018-11-25T22:25:26.552Z,89.97
2018-11-25T22:27:57.229Z,89.10
2018-11-25T22:30:27.603Z,87.47
2018-11-25T22:32:58.197Z,87.20
2018-11-25T22:35:28.776Z,84.57
2018-11-25T22:37:59.183Z,85.63
2018-11-25T22:40:29.593Z,85.90
2018-11-25T22:43:00.268Z,85.00
2018-11-25T22:45:30.699Z,83.43
2018-11-25T22:48:01.238Z,84.27
2018-11-25T22:50:31.714Z,83.10
2018-11-25T22:53:02.137Z,81.60
2018-11-25T22:55:32.624Z,81.50
2018-11-25T22:58:03.033Z,79.10
2018-11-25T23:00:35.751Z,79.17
2018-11-25T23:03:06.399Z,80.90
2018-11-25T23:06:12.484Z,80.07
2018-11-25T23:08:43.055Z,79.10
2018-11-25T23:11:13.583Z,76.27
2018-11-25T23:13:44.052Z,75.47
2018-11-25T23:16:14.467Z,78.47
2018-11-25T23:18:44.881Z,73.20
2018-11-25T23:21:15.255Z,73.70
2018-11-25T23:23:45.841Z,70.43
2018-11-25T23:26:16.138Z,72.70
2018-11-25T23:28:46.731Z,72.20
2018-11-25T23:31:17.133Z,69.83
2018-11-25T23:33:47.528Z,68.80
2018-11-25T23:36:18.140Z,67.40
2018-11-25T23:38:48.651Z,65.30
2018-11-25T23:41:19.035Z,65.97
2018-11-25T23:43:49.595Z,65.00
2018-11-25T23:46:20.156Z,66.13
2018-11-25T23:48:50.501Z,65.60
2018-11-25T23:51:20.914Z,64.17
2018-11-25T23:53:51.491Z,62.23
2018-11-25T23:56:22.058Z,61.43
2018-11-25T23:58:52.531Z,60.03
